sensor_id;sensor_type;location;lat;lon;timestamp;P1;durP1;ratioP1;P2;durP2;ratioP2
78889;SDS011;68279;48.964;14.502;2023-07-02T00:00:27;4.63;;;2.30;;
78889;SDS011;68279;48.964;14.502;2023-07-02T00:02:53;5.50;;;2.55;;
78889;SDS011;68279;48.964;14.502;2023-07-02T00:05:18;3.33;;;2.45;;
78889;SDS011;68279;48.964;14.502;2023-07-02T00:07:44;4.57;;;2.72;;
78889;SDS011;68279;48.964;14.502;2023-07-02T00:10:10;4.25;;;2.13;;
78889;SDS011;68279;48.964;14.502;2023-07-02T00:12:36;3.83;;;2.40;;
78889;SDS011;68279;48.964;14.502;2023-07-02T00:15:02;3.45;;;1.98;;
78889;SDS011;68279;48.964;14.502;2023-07-02T00:17:28;4.07;;;2.50;;
78889;SDS011;68279;48.964;14.502;2023-07-02T00:19:53;3.63;;;2.53;;
78889;SDS011;68279;48.964;14.502;2023-07-02T00:22:19;6.32;;;2.50;;
78889;SDS011;68279;48.964;14.502;2023-07-02T00:24:46;5.25;;;2.95;;
78889;SDS011;68279;48.964;14.502;2023-07-02T00:27:11;4.32;;;2.53;;
78889;SDS011;68279;48.964;14.502;2023-07-02T00:29:36;3.65;;;2.70;;
78889;SDS011;68279;48.964;14.502;2023-07-02T00:32:02;3.67;;;2.42;;
78889;SDS011;68279;48.964;14.502;2023-07-02T00:34:28;4.80;;;1.80;;
78889;SDS011;68279;48.964;14.502;2023-07-02T00:36:54;3.60;;;2.22;;
78889;SDS011;68279;48.964;14.502;2023-07-02T00:39:19;3.80;;;2.53;;
78889;SDS011;68279;48.964;14.502;2023-07-02T00:41:45;4.38;;;2.47;;
78889;SDS011;68279;48.964;14.502;2023-07-02T00:44:12;5.13;;;2.95;;
78889;SDS011;68279;48.964;14.502;2023-07-02T00:46:38;3.45;;;2.55;;
78889;SDS011;68279;48.964;14.502;2023-07-02T00:49:04;3.97;;;2.63;;
78889;SDS011;68279;48.964;14.502;2023-07-02T00:51:30;5.07;;;2.15;;
78889;SDS011;68279;48.964;14.502;2023-07-02T00:53:56;6.43;;;2.95;;
78889;SDS011;68279;48.964;14.502;2023-07-02T00:56:24;3.63;;;2.30;;
78889;SDS011;68279;48.964;14.502;2023-07-02T00:58:52;4.07;;;2.58;;
78889;SDS011;68279;48.964;14.502;2023-07-02T01:01:23;4.55;;;2.78;;
78889;SDS011;68279;48.964;14.502;2023-07-02T01:03:51;3.20;;;1.73;;
78889;SDS011;68279;48.964;14.502;2023-07-02T01:06:23;4.40;;;2.33;;
78889;SDS011;68279;48.964;14.502;2023-07-02T01:08:56;4.68;;;2.40;;
78889;SDS011;68279;48.964;14.502;2023-07-02T01:11:27;4.00;;;2.60;;
78889;SDS011;68279;48.964;14.502;2023-07-02T01:14:02;3.67;;;2.40;;
78889;SDS011;68279;48.964;14.502;2023-07-02T01:16:30;3.80;;;2.40;;
78889;SDS011;68279;48.964;14.502;2023-07-02T01:18:58;4.45;;;3.00;;
78889;SDS011;68279;48.964;14.502;2023-07-02T01:21:29;6.25;;;2.58;;
78889;SDS011;68279;48.964;14.502;2023-07-02T01:23:57;3.67;;;2.53;;
78889;SDS011;68279;48.964;14.502;2023-07-02T01:26:27;4.30;;;2.58;;
78889;SDS011;68279;48.964;14.502;2023-07-02T01:28:54;5.65;;;2.20;;
78889;SDS011;68279;48.964;14.502;2023-07-02T01:31:20;4.57;;;2.97;;
78889;SDS011;68279;48.964;14.502;2023-07-02T01:33:50;4.68;;;2.50;;
78889;SDS011;68279;48.964;14.502;2023-07-02T01:36:16;4.05;;;2.20;;
78889;SDS011;68279;48.964;14.502;2023-07-02T01:38:42;5.53;;;2.33;;
78889;SDS011;68279;48.964;14.502;2023-07-02T01:41:08;3.58;;;2.33;;
78889;SDS011;68279;48.964;14.502;2023-07-02T01:43:33;4.50;;;2.38;;
78889;SDS011;68279;48.964;14.502;2023-07-02T01:45:59;3.67;;;2.25;;
78889;SDS011;68279;48.964;14.502;2023-07-02T01:48:26;4.03;;;2.00;;
78889;SDS011;68279;48.964;14.502;2023-07-02T01:50:52;3.90;;;1.58;;
78889;SDS011;68279;48.964;14.502;2023-07-02T01:53:17;3.83;;;2.00;;
78889;SDS011;68279;48.964;14.502;2023-07-02T01:55:43;4.97;;;2.45;;
78889;SDS011;68279;48.964;14.502;2023-07-02T01:58:09;4.25;;;2.50;;
78889;SDS011;68279;48.964;14.502;2023-07-02T02:00:34;3.22;;;2.03;;
78889;SDS011;68279;48.964;14.502;2023-07-02T02:03:00;3.63;;;2.20;;
78889;SDS011;68279;48.964;14.502;2023-07-02T02:05:26;4.45;;;2.45;;
78889;SDS011;68279;48.964;14.502;2023-07-02T02:07:51;3.55;;;2.33;;
78889;SDS011;68279;48.964;14.502;2023-07-02T02:10:17;4.28;;;2.30;;
78889;SDS011;68279;48.964;14.502;2023-07-02T02:12:42;5.25;;;2.30;;
78889;SDS011;68279;48.964;14.502;2023-07-02T02:15:08;3.42;;;2.30;;
78889;SDS011;68279;48.964;14.502;2023-07-02T02:17:34;3.63;;;2.55;;
78889;SDS011;68279;48.964;14.502;2023-07-02T02:20:00;3.70;;;2.10;;
78889;SDS011;68279;48.964;14.502;2023-07-02T02:22:26;3.63;;;2.03;;
78889;SDS011;68279;48.964;14.502;2023-07-02T02:24:51;3.47;;;2.33;;
78889;SDS011;68279;48.964;14.502;2023-07-02T02:27:17;3.83;;;2.28;;
78889;SDS011;68279;48.964;14.502;2023-07-02T02:29:42;4.28;;;1.98;;
78889;SDS011;68279;48.964;14.502;2023-07-02T02:32:08;3.35;;;1.98;;
78889;SDS011;68279;48.964;14.502;2023-07-02T02:34:34;3.65;;;2.35;;
78889;SDS011;68279;48.964;14.502;2023-07-02T02:36:59;3.97;;;2.20;;
78889;SDS011;68279;48.964;14.502;2023-07-02T02:39:25;4.00;;;2.10;;
78889;SDS011;68279;48.964;14.502;2023-07-02T02:41:51;4.20;;;2.13;;
78889;SDS011;68279;48.964;14.502;2023-07-02T02:44:17;4.07;;;2.25;;
78889;SDS011;68279;48.964;14.502;2023-07-02T02:46:42;4.20;;;2.40;;
78889;SDS011;68279;48.964;14.502;2023-07-02T02:49:08;3.47;;;2.10;;
78889;SDS011;68279;48.964;14.502;2023-07-02T02:51:33;4.07;;;1.67;;
78889;SDS011;68279;48.964;14.502;2023-07-02T02:53:59;4.38;;;2.08;;
78889;SDS011;68279;48.964;14.502;2023-07-02T02:56:25;3.75;;;1.60;;
78889;SDS011;68279;48.964;14.502;2023-07-02T02:58:50;2.78;;;1.90;;
78889;SDS011;68279;48.964;14.502;2023-07-02T03:01:16;3.50;;;1.80;;
78889;SDS011;68279;48.964;14.502;2023-07-02T03:03:42;3.03;;;1.83;;
78889;SDS011;68279;48.964;14.502;2023-07-02T03:06:13;2.95;;;1.75;;
78889;SDS011;68279;48.964;14.502;2023-07-02T03:08:39;1.92;;;0.95;;
78889;SDS011;68279;48.964;14.502;2023-07-02T03:11:05;2.55;;;1.50;;
78889;SDS011;68279;48.964;14.502;2023-07-02T03:13:31;3.25;;;1.85;;
78889;SDS011;68279;48.964;14.502;2023-07-02T03:15:57;2.20;;;1.13;;
78889;SDS011;68279;48.964;14.502;2023-07-02T03:18:22;2.58;;;1.00;;
78889;SDS011;68279;48.964;14.502;2023-07-02T03:20:48;2.20;;;0.93;;
78889;SDS011;68279;48.964;14.502;2023-07-02T03:23:13;2.67;;;1.13;;
78889;SDS011;68279;48.964;14.502;2023-07-02T03:25:39;2.10;;;0.98;;
78889;SDS011;68279;48.964;14.502;2023-07-02T03:28:04;3.40;;;1.38;;
78889;SDS011;68279;48.964;14.502;2023-07-02T03:30:30;1.83;;;1.08;;
78889;SDS011;68279;48.964;14.502;2023-07-02T03:32:57;2.95;;;1.33;;
78889;SDS011;68279;48.964;14.502;2023-07-02T03:35:22;2.20;;;0.73;;
78889;SDS011;68279;48.964;14.502;2023-07-02T03:37:48;1.73;;;0.75;;
78889;SDS011;68279;48.964;14.502;2023-07-02T03:40:14;2.45;;;0.70;;
78889;SDS011;68279;48.964;14.502;2023-07-02T03:42:39;3.40;;;1.10;;
78889;SDS011;68279;48.964;14.502;2023-07-02T03:45:05;2.45;;;0.70;;
78889;SDS011;68279;48.964;14.502;2023-07-02T03:47:31;1.80;;;0.60;;
78889;SDS011;68279;48.964;14.502;2023-07-02T03:49:56;1.92;;;0.85;;
78889;SDS011;68279;48.964;14.502;2023-07-02T03:52:22;1.40;;;0.77;;
78889;SDS011;68279;48.964;14.502;2023-07-02T03:54:48;1.25;;;0.68;;
78889;SDS011;68279;48.964;14.502;2023-07-02T03:57:13;1.52;;;0.75;;
78889;SDS011;68279;48.964;14.502;2023-07-02T03:59:39;1.17;;;0.60;;
78889;SDS011;68279;48.964;14.502;2023-07-02T04:02:05;1.08;;;0.43;;
78889;SDS011;68279;48.964;14.502;2023-07-02T04:04:30;2.47;;;0.68;;
78889;SDS011;68279;48.964;14.502;2023-07-02T04:06:56;1.23;;;0.73;;
78889;SDS011;68279;48.964;14.502;2023-07-02T04:09:22;1.40;;;0.65;;
78889;SDS011;68279;48.964;14.502;2023-07-02T04:11:48;1.10;;;0.57;;
78889;SDS011;68279;48.964;14.502;2023-07-02T04:14:13;1.30;;;0.57;;
78889;SDS011;68279;48.964;14.502;2023-07-02T04:16:39;1.42;;;0.57;;
78889;SDS011;68279;48.964;14.502;2023-07-02T04:19:04;1.75;;;0.85;;
78889;SDS011;68279;48.964;14.502;2023-07-02T04:21:30;1.83;;;0.73;;
78889;SDS011;68279;48.964;14.502;2023-07-02T04:23:56;2.80;;;0.85;;
78889;SDS011;68279;48.964;14.502;2023-07-02T04:26:21;1.98;;;0.63;;
78889;SDS011;68279;48.964;14.502;2023-07-02T04:28:47;1.50;;;0.55;;
78889;SDS011;68279;48.964;14.502;2023-07-02T04:31:13;1.70;;;0.80;;
78889;SDS011;68279;48.964;14.502;2023-07-02T04:33:39;1.80;;;0.70;;
78889;SDS011;68279;48.964;14.502;2023-07-02T04:36:06;1.83;;;0.70;;
78889;SDS011;68279;48.964;14.502;2023-07-02T04:38:31;1.55;;;0.73;;
78889;SDS011;68279;48.964;14.502;2023-07-02T04:40:57;1.90;;;0.60;;
78889;SDS011;68279;48.964;14.502;2023-07-02T04:43:30;1.35;;;0.60;;
78889;SDS011;68279;48.964;14.502;2023-07-02T04:45:58;1.10;;;0.55;;
78889;SDS011;68279;48.964;14.502;2023-07-02T04:48:24;1.45;;;0.57;;
78889;SDS011;68279;48.964;14.502;2023-07-02T04:50:49;1.27;;;0.50;;
78889;SDS011;68279;48.964;14.502;2023-07-02T04:53:15;0.93;;;0.55;;
78889;SDS011;68279;48.964;14.502;2023-07-02T04:55:41;1.13;;;0.52;;
78889;SDS011;68279;48.964;14.502;2023-07-02T04:58:07;1.48;;;0.63;;
78889;SDS011;68279;48.964;14.502;2023-07-02T05:00:33;1.77;;;0.60;;
78889;SDS011;68279;48.964;14.502;2023-07-02T05:02:58;1.83;;;1.08;;
78889;SDS011;68279;48.964;14.502;2023-07-02T05:05:24;1.23;;;0.63;;
78889;SDS011;68279;48.964;14.502;2023-07-02T05:07:49;1.90;;;0.70;;
78889;SDS011;68279;48.964;14.502;2023-07-02T05:10:15;1.83;;;0.77;;
78889;SDS011;68279;48.964;14.502;2023-07-02T05:12:41;2.03;;;0.85;;
78889;SDS011;68279;48.964;14.502;2023-07-02T05:15:06;1.60;;;0.80;;
78889;SDS011;68279;48.964;14.502;2023-07-02T05:17:32;1.80;;;0.90;;
78889;SDS011;68279;48.964;14.502;2023-07-02T05:20:00;1.73;;;0.70;;
78889;SDS011;68279;48.964;14.502;2023-07-02T05:22:26;1.38;;;0.60;;
78889;SDS011;68279;48.964;14.502;2023-07-02T05:24:52;1.80;;;0.80;;
78889;SDS011;68279;48.964;14.502;2023-07-02T05:27:17;1.73;;;0.70;;
78889;SDS011;68279;48.964;14.502;2023-07-02T05:29:43;1.67;;;0.73;;
78889;SDS011;68279;48.964;14.502;2023-07-02T05:32:09;2.38;;;0.80;;
78889;SDS011;68279;48.964;14.502;2023-07-02T05:34:34;3.47;;;0.90;;
78889;SDS011;68279;48.964;14.502;2023-07-02T05:37:00;1.70;;;1.00;;
78889;SDS011;68279;48.964;14.502;2023-07-02T05:39:26;1.60;;;0.60;;
78889;SDS011;68279;48.964;14.502;2023-07-02T05:41:51;2.10;;;0.77;;
78889;SDS011;68279;48.964;14.502;2023-07-02T05:44:17;1.40;;;0.50;;
78889;SDS011;68279;48.964;14.502;2023-07-02T05:46:43;1.92;;;0.63;;
78889;SDS011;68279;48.964;14.502;2023-07-02T05:49:08;2.60;;;1.25;;
78889;SDS011;68279;48.964;14.502;2023-07-02T05:51:34;1.95;;;0.80;;
78889;SDS011;68279;48.964;14.502;2023-07-02T05:53:59;1.90;;;0.73;;
78889;SDS011;68279;48.964;14.502;2023-07-02T05:56:25;2.05;;;0.85;;
78889;SDS011;68279;48.964;14.502;2023-07-02T05:58:51;3.53;;;0.82;;
78889;SDS011;68279;48.964;14.502;2023-07-02T06:01:16;2.08;;;1.13;;
78889;SDS011;68279;48.964;14.502;2023-07-02T06:03:42;2.30;;;0.90;;
78889;SDS011;68279;48.964;14.502;2023-07-02T06:06:08;2.88;;;1.02;;
78889;SDS011;68279;48.964;14.502;2023-07-02T06:08:34;2.58;;;1.13;;
78889;SDS011;68279;48.964;14.502;2023-07-02T06:11:00;3.15;;;1.00;;
78889;SDS011;68279;48.964;14.502;2023-07-02T06:13:25;2.85;;;1.20;;
78889;SDS011;68279;48.964;14.502;2023-07-02T06:15:51;3.22;;;1.52;;
78889;SDS011;68279;48.964;14.502;2023-07-02T06:18:16;3.63;;;1.27;;
78889;SDS011;68279;48.964;14.502;2023-07-02T06:20:42;1.70;;;1.05;;
78889;SDS011;68279;48.964;14.502;2023-07-02T06:23:08;2.58;;;1.60;;
78889;SDS011;68279;48.964;14.502;2023-07-02T06:25:34;2.67;;;1.20;;
78889;SDS011;68279;48.964;14.502;2023-07-02T06:27:59;2.80;;;1.40;;
78889;SDS011;68279;48.964;14.502;2023-07-02T06:30:25;4.22;;;1.42;;
78889;SDS011;68279;48.964;14.502;2023-07-02T06:32:51;4.32;;;1.27;;
78889;SDS011;68279;48.964;14.502;2023-07-02T06:35:18;2.47;;;1.20;;
78889;SDS011;68279;48.964;14.502;2023-07-02T06:37:44;3.28;;;1.73;;
78889;SDS011;68279;48.964;14.502;2023-07-02T06:40:09;2.53;;;1.27;;
78889;SDS011;68279;48.964;14.502;2023-07-02T06:42:35;2.95;;;1.40;;
78889;SDS011;68279;48.964;14.502;2023-07-02T06:45:01;2.40;;;1.30;;
78889;SDS011;68279;48.964;14.502;2023-07-02T06:47:28;3.65;;;1.30;;
78889;SDS011;68279;48.964;14.502;2023-07-02T06:49:53;2.25;;;1.15;;
78889;SDS011;68279;48.964;14.502;2023-07-02T06:52:19;2.70;;;1.25;;
78889;SDS011;68279;48.964;14.502;2023-07-02T06:54:45;5.80;;;1.77;;
78889;SDS011;68279;48.964;14.502;2023-07-02T06:57:12;2.35;;;1.25;;
78889;SDS011;68279;48.964;14.502;2023-07-02T06:59:38;3.85;;;1.55;;
78889;SDS011;68279;48.964;14.502;2023-07-02T07:02:03;2.10;;;1.30;;
78889;SDS011;68279;48.964;14.502;2023-07-02T07:04:29;5.75;;;1.30;;
78889;SDS011;68279;48.964;14.502;2023-07-02T07:06:55;3.65;;;1.50;;
78889;SDS011;68279;48.964;14.502;2023-07-02T07:09:21;2.67;;;1.30;;
78889;SDS011;68279;48.964;14.502;2023-07-02T07:11:47;2.45;;;1.17;;
78889;SDS011;68279;48.964;14.502;2023-07-02T07:14:12;3.20;;;1.15;;
78889;SDS011;68279;48.964;14.502;2023-07-02T07:16:38;2.97;;;1.20;;
78889;SDS011;68279;48.964;14.502;2023-07-02T07:19:04;1.95;;;1.10;;
78889;SDS011;68279;48.964;14.502;2023-07-02T07:21:30;3.25;;;1.20;;
78889;SDS011;68279;48.964;14.502;2023-07-02T07:23:56;6.10;;;1.65;;
78889;SDS011;68279;48.964;14.502;2023-07-02T07:26:22;2.60;;;1.00;;
78889;SDS011;68279;48.964;14.502;2023-07-02T07:28:48;2.78;;;1.42;;
78889;SDS011;68279;48.964;14.502;2023-07-02T07:31:14;3.03;;;1.60;;
78889;SDS011;68279;48.964;14.502;2023-07-02T07:33:40;3.25;;;1.40;;
78889;SDS011;68279;48.964;14.502;2023-07-02T07:36:06;2.40;;;1.30;;
78889;SDS011;68279;48.964;14.502;2023-07-02T07:38:32;2.58;;;1.40;;
78889;SDS011;68279;48.964;14.502;2023-07-02T07:40:57;2.92;;;1.55;;
78889;SDS011;68279;48.964;14.502;2023-07-02T07:43:24;2.78;;;1.55;;
78889;SDS011;68279;48.964;14.502;2023-07-02T07:45:49;3.03;;;1.25;;
78889;SDS011;68279;48.964;14.502;2023-07-02T07:48:15;3.40;;;1.55;;
78889;SDS011;68279;48.964;14.502;2023-07-02T07:50:41;2.85;;;1.23;;
78889;SDS011;68279;48.964;14.502;2023-07-02T07:53:06;2.50;;;1.17;;
78889;SDS011;68279;48.964;14.502;2023-07-02T07:55:32;3.25;;;1.40;;
78889;SDS011;68279;48.964;14.502;2023-07-02T07:57:57;2.38;;;1.20;;
78889;SDS011;68279;48.964;14.502;2023-07-02T08:00:23;2.45;;;1.25;;
78889;SDS011;68279;48.964;14.502;2023-07-02T08:02:50;3.10;;;1.27;;
78889;SDS011;68279;48.964;14.502;2023-07-02T08:05:17;2.08;;;0.90;;
78889;SDS011;68279;48.964;14.502;2023-07-02T08:07:43;2.53;;;1.00;;
78889;SDS011;68279;48.964;14.502;2023-07-02T08:10:09;1.70;;;0.85;;
78889;SDS011;68279;48.964;14.502;2023-07-02T08:12:35;2.55;;;1.25;;
78889;SDS011;68279;48.964;14.502;2023-07-02T08:15:01;2.20;;;0.90;;
78889;SDS011;68279;48.964;14.502;2023-07-02T08:17:27;2.10;;;0.90;;
78889;SDS011;68279;48.964;14.502;2023-07-02T08:19:52;1.70;;;0.70;;
78889;SDS011;68279;48.964;14.502;2023-07-02T08:22:18;2.35;;;0.90;;
78889;SDS011;68279;48.964;14.502;2023-07-02T08:24:44;3.03;;;0.73;;
78889;SDS011;68279;48.964;14.502;2023-07-02T08:27:09;2.65;;;1.10;;
78889;SDS011;68279;48.964;14.502;2023-07-02T08:29:38;2.50;;;1.10;;
78889;SDS011;68279;48.964;14.502;2023-07-02T08:32:04;2.00;;;1.17;;
78889;SDS011;68279;48.964;14.502;2023-07-02T08:34:30;2.33;;;0.90;;
78889;SDS011;68279;48.964;14.502;2023-07-02T08:36:55;2.38;;;1.00;;
78889;SDS011;68279;48.964;14.502;2023-07-02T08:39:21;2.50;;;1.00;;
78889;SDS011;68279;48.964;14.502;2023-07-02T08:41:47;3.13;;;1.33;;
78889;SDS011;68279;48.964;14.502;2023-07-02T08:44:14;2.08;;;1.17;;
78889;SDS011;68279;48.964;14.502;2023-07-02T08:46:40;2.20;;;1.00;;
78889;SDS011;68279;48.964;14.502;2023-07-02T08:49:07;2.33;;;1.00;;
78889;SDS011;68279;48.964;14.502;2023-07-02T08:51:34;2.67;;;0.95;;
78889;SDS011;68279;48.964;14.502;2023-07-02T08:54:03;1.75;;;0.82;;
78889;SDS011;68279;48.964;14.502;2023-07-02T08:56:29;2.30;;;0.85;;
78889;SDS011;68279;48.964;14.502;2023-07-02T08:58:55;2.97;;;1.13;;
78889;SDS011;68279;48.964;14.502;2023-07-02T09:01:21;1.58;;;0.80;;
78889;SDS011;68279;48.964;14.502;2023-07-02T09:03:48;2.30;;;0.90;;
78889;SDS011;68279;48.964;14.502;2023-07-02T09:06:16;2.40;;;1.00;;
78889;SDS011;68279;48.964;14.502;2023-07-02T09:08:42;2.20;;;1.00;;
78889;SDS011;68279;48.964;14.502;2023-07-02T09:11:14;2.42;;;1.10;;
78889;SDS011;68279;48.964;14.502;2023-07-02T09:16:32;2.30;;;0.80;;
78889;SDS011;68279;48.964;14.502;2023-07-02T09:19:10;1.67;;;0.90;;
78889;SDS011;68279;48.964;14.502;2023-07-02T09:21:45;1.73;;;0.88;;
78889;SDS011;68279;48.964;14.502;2023-07-02T09:24:15;1.98;;;0.80;;
78889;SDS011;68279;48.964;14.502;2023-07-02T09:26:45;1.98;;;0.80;;
78889;SDS011;68279;48.964;14.502;2023-07-02T09:29:12;1.67;;;0.73;;
78889;SDS011;68279;48.964;14.502;2023-07-02T09:31:44;2.40;;;0.90;;
78889;SDS011;68279;48.964;14.502;2023-07-02T09:34:11;1.90;;;0.88;;
78889;SDS011;68279;48.964;14.502;2023-07-02T09:36:38;2.13;;;0.80;;
78889;SDS011;68279;48.964;14.502;2023-07-02T09:39:11;2.08;;;0.80;;
78889;SDS011;68279;48.964;14.502;2023-07-02T09:41:42;2.33;;;1.10;;
78889;SDS011;68279;48.964;14.502;2023-07-02T09:44:09;3.00;;;0.95;;
78889;SDS011;68279;48.964;14.502;2023-07-02T09:46:41;2.97;;;1.77;;
78889;SDS011;68279;48.964;14.502;2023-07-02T09:49:12;2.30;;;1.05;;
78889;SDS011;68279;48.964;14.502;2023-07-02T09:51:40;1.92;;;1.00;;
78889;SDS011;68279;48.964;14.502;2023-07-02T09:54:07;1.92;;;0.77;;
78889;SDS011;68279;48.964;14.502;2023-07-02T09:56:33;2.05;;;0.85;;
78889;SDS011;68279;48.964;14.502;2023-07-02T09:58:59;1.77;;;1.23;;
78889;SDS011;68279;48.964;14.502;2023-07-02T10:01:24;3.55;;;1.00;;
78889;SDS011;68279;48.964;14.502;2023-07-02T10:03:50;1.83;;;1.00;;
78889;SDS011;68279;48.964;14.502;2023-07-02T10:06:15;2.70;;;1.05;;
78889;SDS011;68279;48.964;14.502;2023-07-02T10:08:51;1.83;;;0.80;;
78889;SDS011;68279;48.964;14.502;2023-07-02T10:11:18;2.13;;;1.00;;
78889;SDS011;68279;48.964;14.502;2023-07-02T10:13:43;2.85;;;1.33;;
78889;SDS011;68279;48.964;14.502;2023-07-02T10:16:09;2.75;;;1.10;;
78889;SDS011;68279;48.964;14.502;2023-07-02T10:18:34;1.33;;;0.60;;
78889;SDS011;68279;48.964;14.502;2023-07-02T10:21:12;2.05;;;0.88;;
78889;SDS011;68279;48.964;14.502;2023-07-02T10:23:38;2.65;;;1.40;;
78889;SDS011;68279;48.964;14.502;2023-07-02T10:26:14;1.92;;;0.80;;
78889;SDS011;68279;48.964;14.502;2023-07-02T10:31:19;2.20;;;0.80;;
78889;SDS011;68279;48.964;14.502;2023-07-02T10:33:46;2.03;;;0.88;;
78889;SDS011;68279;48.964;14.502;2023-07-02T10:36:19;2.17;;;0.90;;
78889;SDS011;68279;48.964;14.502;2023-07-02T10:38:46;2.63;;;1.23;;
78889;SDS011;68279;48.964;14.502;2023-07-02T10:41:22;1.98;;;0.70;;
78889;SDS011;68279;48.964;14.502;2023-07-02T10:43:51;4.45;;;1.27;;
78889;SDS011;68279;48.964;14.502;2023-07-02T10:46:20;3.05;;;1.08;;
78889;SDS011;68279;48.964;14.502;2023-07-02T10:48:56;1.85;;;0.98;;
78889;SDS011;68279;48.964;14.502;2023-07-02T10:51:22;2.72;;;1.15;;
78889;SDS011;68279;48.964;14.502;2023-07-02T10:53:59;1.80;;;0.80;;
78889;SDS011;68279;48.964;14.502;2023-07-02T10:56:26;2.03;;;0.93;;
78889;SDS011;68279;48.964;14.502;2023-07-02T10:58:53;3.47;;;1.20;;
78889;SDS011;68279;48.964;14.502;2023-07-02T11:01:23;3.13;;;1.10;;
78889;SDS011;68279;48.964;14.502;2023-07-02T11:03:55;2.83;;;1.08;;
78889;SDS011;68279;48.964;14.502;2023-07-02T11:06:21;3.40;;;1.20;;
78889;SDS011;68279;48.964;14.502;2023-07-02T11:08:47;2.42;;;1.23;;
78889;SDS011;68279;48.964;14.502;2023-07-02T11:11:12;2.03;;;0.95;;
78889;SDS011;68279;48.964;14.502;2023-07-02T11:13:47;2.78;;;1.10;;
78889;SDS011;68279;48.964;14.502;2023-07-02T11:16:17;3.40;;;1.48;;
78889;SDS011;68279;48.964;14.502;2023-07-02T11:18:50;2.95;;;1.27;;
78889;SDS011;68279;48.964;14.502;2023-07-02T11:21:16;4.25;;;1.70;;
78889;SDS011;68279;48.964;14.502;2023-07-02T11:23:41;4.35;;;1.35;;
78889;SDS011;68279;48.964;14.502;2023-07-02T11:26:07;3.72;;;2.25;;
78889;SDS011;68279;48.964;14.502;2023-07-02T11:28:33;3.67;;;1.33;;
78889;SDS011;68279;48.964;14.502;2023-07-02T11:31:00;5.60;;;1.73;;
78889;SDS011;68279;48.964;14.502;2023-07-02T11:36:00;4.28;;;1.85;;
78889;SDS011;68279;48.964;14.502;2023-07-02T11:38:25;4.40;;;1.58;;
78889;SDS011;68279;48.964;14.502;2023-07-02T11:40:52;5.22;;;1.75;;
78889;SDS011;68279;48.964;14.502;2023-07-02T11:43:17;4.00;;;1.60;;
78889;SDS011;68279;48.964;14.502;2023-07-02T11:45:43;3.72;;;1.90;;
78889;SDS011;68279;48.964;14.502;2023-07-02T11:48:08;5.47;;;2.25;;
78889;SDS011;68279;48.964;14.502;2023-07-02T11:50:34;5.25;;;2.22;;
78889;SDS011;68279;48.964;14.502;2023-07-02T11:53:00;4.25;;;2.58;;
78889;SDS011;68279;48.964;14.502;2023-07-02T11:55:25;4.55;;;2.08;;
78889;SDS011;68279;48.964;14.502;2023-07-02T11:57:51;4.07;;;2.45;;
78889;SDS011;68279;48.964;14.502;2023-07-02T12:00:17;4.85;;;2.08;;
78889;SDS011;68279;48.964;14.502;2023-07-02T12:02:42;4.32;;;2.00;;
78889;SDS011;68279;48.964;14.502;2023-07-02T12:05:08;4.47;;;2.40;;
78889;SDS011;68279;48.964;14.502;2023-07-02T12:07:34;3.65;;;2.10;;
78889;SDS011;68279;48.964;14.502;2023-07-02T12:10:00;5.38;;;2.30;;
78889;SDS011;68279;48.964;14.502;2023-07-02T12:12:26;3.45;;;1.85;;
78889;SDS011;68279;48.964;14.502;2023-07-02T12:14:51;3.92;;;2.08;;
78889;SDS011;68279;48.964;14.502;2023-07-02T12:17:17;6.88;;;2.80;;
78889;SDS011;68279;48.964;14.502;2023-07-02T12:19:43;7.03;;;2.75;;
78889;SDS011;68279;48.964;14.502;2023-07-02T12:22:08;6.68;;;3.05;;
78889;SDS011;68279;48.964;14.502;2023-07-02T12:24:34;4.90;;;2.65;;
78889;SDS011;68279;48.964;14.502;2023-07-02T12:26:59;6.45;;;2.70;;
78889;SDS011;68279;48.964;14.502;2023-07-02T12:29:25;5.53;;;2.20;;
78889;SDS011;68279;48.964;14.502;2023-07-02T12:31:51;5.30;;;3.55;;
78889;SDS011;68279;48.964;14.502;2023-07-02T12:34:16;6.65;;;2.30;;
78889;SDS011;68279;48.964;14.502;2023-07-02T12:36:42;5.15;;;2.35;;
78889;SDS011;68279;48.964;14.502;2023-07-02T12:39:08;6.22;;;2.92;;
78889;SDS011;68279;48.964;14.502;2023-07-02T12:41:34;5.13;;;3.15;;
78889;SDS011;68279;48.964;14.502;2023-07-02T12:43:59;6.72;;;2.92;;
78889;SDS011;68279;48.964;14.502;2023-07-02T12:46:25;4.28;;;2.15;;
78889;SDS011;68279;48.964;14.502;2023-07-02T12:48:51;4.13;;;2.03;;
78889;SDS011;68279;48.964;14.502;2023-07-02T12:51:16;5.32;;;2.85;;
78889;SDS011;68279;48.964;14.502;2023-07-02T12:53:42;6.30;;;2.80;;
78889;SDS011;68279;48.964;14.502;2023-07-02T12:56:07;5.75;;;3.00;;
78889;SDS011;68279;48.964;14.502;2023-07-02T12:58:33;7.57;;;3.95;;
78889;SDS011;68279;48.964;14.502;2023-07-02T13:00:59;7.78;;;2.80;;
78889;SDS011;68279;48.964;14.502;2023-07-02T13:03:25;7.13;;;3.53;;
78889;SDS011;68279;48.964;14.502;2023-07-02T13:05:50;4.18;;;1.85;;
78889;SDS011;68279;48.964;14.502;2023-07-02T13:08:16;8.95;;;3.38;;
78889;SDS011;68279;48.964;14.502;2023-07-02T13:10:43;8.93;;;3.00;;
78889;SDS011;68279;48.964;14.502;2023-07-02T13:13:09;5.15;;;2.50;;
78889;SDS011;68279;48.964;14.502;2023-07-02T13:15:34;6.18;;;3.00;;
78889;SDS011;68279;48.964;14.502;2023-07-02T13:18:00;5.88;;;3.00;;
78889;SDS011;68279;48.964;14.502;2023-07-02T13:20:26;7.65;;;2.75;;
78889;SDS011;68279;48.964;14.502;2023-07-02T13:22:52;6.03;;;2.70;;
78889;SDS011;68279;48.964;14.502;2023-07-02T13:25:18;8.80;;;2.92;;
78889;SDS011;68279;48.964;14.502;2023-07-02T13:27:43;6.18;;;2.80;;
78889;SDS011;68279;48.964;14.502;2023-07-02T13:30:09;4.95;;;2.60;;
78889;SDS011;68279;48.964;14.502;2023-07-02T13:32:35;5.50;;;2.80;;
78889;SDS011;68279;48.964;14.502;2023-07-02T13:35:00;7.55;;;2.88;;
78889;SDS011;68279;48.964;14.502;2023-07-02T13:37:26;4.90;;;2.70;;
78889;SDS011;68279;48.964;14.502;2023-07-02T13:39:52;5.60;;;2.78;;
78889;SDS011;68279;48.964;14.502;2023-07-02T13:42:17;4.32;;;2.45;;
78889;SDS011;68279;48.964;14.502;2023-07-02T13:44:43;5.32;;;2.33;;
78889;SDS011;68279;48.964;14.502;2023-07-02T13:47:09;5.70;;;2.40;;
78889;SDS011;68279;48.964;14.502;2023-07-02T13:49:36;5.47;;;2.58;;
78889;SDS011;68279;48.964;14.502;2023-07-02T13:52:02;7.63;;;3.05;;
78889;SDS011;68279;48.964;14.502;2023-07-02T13:54:27;5.43;;;2.67;;
78889;SDS011;68279;48.964;14.502;2023-07-02T13:56:53;5.55;;;2.70;;
78889;SDS011;68279;48.964;14.502;2023-07-02T13:59:19;6.22;;;3.35;;
78889;SDS011;68279;48.964;14.502;2023-07-02T14:01:45;7.18;;;3.35;;
78889;SDS011;68279;48.964;14.502;2023-07-02T14:04:12;6.07;;;3.03;;
78889;SDS011;68279;48.964;14.502;2023-07-02T14:06:38;5.82;;;2.83;;
78889;SDS011;68279;48.964;14.502;2023-07-02T14:09:04;5.10;;;2.88;;
78889;SDS011;68279;48.964;14.502;2023-07-02T14:11:31;5.65;;;2.90;;
78889;SDS011;68279;48.964;14.502;2023-07-02T14:13:58;6.25;;;2.90;;
78889;SDS011;68279;48.964;14.502;2023-07-02T14:16:24;5.55;;;2.70;;
78889;SDS011;68279;48.964;14.502;2023-07-02T14:18:50;7.57;;;2.85;;
78889;SDS011;68279;48.964;14.502;2023-07-02T14:21:16;7.63;;;3.33;;
78889;SDS011;68279;48.964;14.502;2023-07-02T14:23:42;6.28;;;3.10;;
78889;SDS011;68279;48.964;14.502;2023-07-02T14:26:08;7.55;;;3.30;;
78889;SDS011;68279;48.964;14.502;2023-07-02T14:28:34;7.88;;;3.35;;
78889;SDS011;68279;48.964;14.502;2023-07-02T14:31:00;8.25;;;3.38;;
78889;SDS011;68279;48.964;14.502;2023-07-02T14:33:29;6.00;;;2.97;;
78889;SDS011;68279;48.964;14.502;2023-07-02T14:35:56;7.53;;;3.42;;